Check out our new PWSWeather beta!
PWSweather.com
Personal Weather Stations
Station Observations
KMAWOBUR2
West Side, Woburn, MA 01801

West SideWoburn, MA 01801

Lat: 42.458, Lon: -71.1955

Elevation: 160

Station Type: DAVIS/Vantage Pro2

http://pauland.net

High Low Average
Temperature 35.2°F1.8°C 15.9°F-8.9°C 27.4°F-2.6°C
Dew Point 33.7°F0.9°C -3.5°F-19.7°C 18.2°F-7.7°C
Winds 9.0 mph 14.5 kmh Calm Calm 4.0 mph WSW6.4 kmh WSW
Wind Gusts 23.0 mph37.0 kmh -- 8.0 mph12.9 kmh
Humidity 95% 37% 71%
Pressure 30.47 in1031.8 mb 29.66 in1004.4 mb -
Precipitation 0.49 in12.4 mm - -
Hour Temp Dew Point Humidity Winds Wind Gusts Pressure Precip Precip Rate Daily Precip Total
12:00 AM 34.2°F1.2°C 32.7°F0.4°C 94% Calm Calm 1.0 mph1.6 kmh 29.67 in1004.7 mb 0.00 in0.0 mm 0.00 in0.0 mm 0.47 in11.9 mm
12:05 AM 34.3°F1.3°C 33.0°F0.6°C 95% Calm Calm 1.0 mph1.6 kmh 29.67 in1004.7 mb 0.00 in0.0 mm 0.00 in0.0 mm 0.47 in11.9 mm
12:10 AM 34.3°F1.3°C 33.0°F0.6°C 95% Calm Calm 1.0 mph1.6 kmh 29.66 in1004.4 mb 0.00 in0.0 mm 0.00 in0.0 mm 0.47 in11.9 mm
12:15 AM 34.3°F1.3°C 33.0°F0.6°C 95% Calm Calm 1.0 mph1.6 kmh 29.67 in1004.7 mb 0.00 in0.0 mm 0.00 in0.0 mm 0.47 in11.9 mm
12:20 AM 34.3°F1.3°C 33.0°F0.6°C 95% Calm Calm 1.0 mph1.6 kmh 29.67 in1004.7 mb 0.00 in0.0 mm 0.00 in0.0 mm 0.47 in11.9 mm
12:25 AM 34.3°F1.3°C 33.0°F0.6°C 95% Calm Calm 1.0 mph1.6 kmh 29.67 in1004.7 mb 0.00 in0.0 mm 0.00 in0.0 mm 0.47 in11.9 mm
12:30 AM 34.3°F1.3°C 33.0°F0.6°C 95% Calm Calm 2.0 mph3.2 kmh 29.67 in1004.7 mb 0.00 in0.0 mm 0.00 in0.0 mm 0.47 in11.9 mm
12:35 AM 34.3°F1.3°C 33.0°F0.6°C 95% Calm Calm 1.0 mph1.6 kmh 29.67 in1004.7 mb 0.00 in0.0 mm 0.00 in0.0 mm 0.47 in11.9 mm
12:40 AM 34.2°F1.2°C 32.9°F0.5°C 95% Calm Calm -- 29.67 in1004.7 mb 0.00 in0.0 mm 0.00 in0.0 mm 0.47 in11.9 mm
12:45 AM 34.2°F1.2°C 32.7°F0.4°C 94% Calm Calm -- 29.68 in1005.1 mb 0.00 in0.0 mm 0.00 in0.0 mm 0.47 in11.9 mm
12:50 AM 34.1°F1.2°C 32.8°F0.4°C 95% Calm Calm -- 29.68 in1005.1 mb 0.00 in0.0 mm 0.00 in0.0 mm 0.47 in11.9 mm
12:55 AM 34.0°F1.1°C 32.7°F0.4°C 95% Calm Calm -- 29.68 in1005.1 mb 0.00 in0.0 mm 0.00 in0.0 mm 0.47 in11.9 mm
01:00 AM 34.1°F1.2°C 32.8°F0.4°C 95% Calm Calm -- 29.69 in1005.4 mb 0.00 in0.0 mm 0.00 in0.0 mm 0.47 in11.9 mm
01:05 AM 33.9°F1.1°C 32.6°F0.3°C 95% Calm Calm 1.0 mph1.6 kmh 29.70 in1005.8 mb 0.00 in0.0 mm 0.00 in0.0 mm 0.47 in11.9 mm
01:10 AM 33.9°F1.1°C 32.6°F0.3°C 95% Calm Calm 1.0 mph1.6 kmh 29.70 in1005.8 mb 0.00 in0.0 mm 0.00 in0.0 mm 0.47 in11.9 mm
01:15 AM 34.0°F1.1°C 32.7°F0.4°C 95% 1.0 mph WSW1.6 kmh WSW 2.0 mph3.2 kmh 29.71 in1006.1 mb 0.00 in0.0 mm 0.00 in0.0 mm 0.47 in11.9 mm
01:20 AM 34.0°F1.1°C 32.7°F0.4°C 95% Calm Calm 1.0 mph1.6 kmh 29.71 in1006.1 mb 0.00 in0.0 mm 0.00 in0.0 mm 0.47 in11.9 mm
01:25 AM 34.1°F1.2°C 32.8°F0.4°C 95% 1.0 mph WSW1.6 kmh WSW 4.0 mph6.4 kmh 29.71 in1006.1 mb 0.00 in0.0 mm 0.00 in0.0 mm 0.47 in11.9 mm
01:30 AM 34.1°F1.2°C 32.8°F0.4°C 95% 1.0 mph SSW1.6 kmh SSW 2.0 mph3.2 kmh 29.71 in1006.1 mb 0.00 in0.0 mm 0.00 in0.0 mm 0.47 in11.9 mm
01:35 AM 34.3°F1.3°C 33.0°F0.6°C 95% Calm Calm 2.0 mph3.2 kmh 29.71 in1006.1 mb 0.00 in0.0 mm 0.00 in0.0 mm 0.47 in11.9 mm
01:40 AM 34.4°F1.3°C 33.1°F0.6°C 95% 1.0 mph SSW1.6 kmh SSW 5.0 mph8.0 kmh 29.71 in1006.1 mb 0.01 in0.3 mm 0.12 in3.0 mm 0.48 in12.2 mm
01:45 AM 34.6°F1.4°C 33.3°F0.7°C 95% 1.0 mph SSW1.6 kmh SSW 4.0 mph6.4 kmh 29.72 in1006.4 mb 0.01 in0.3 mm 0.00 in0.0 mm 0.48 in12.2 mm
01:50 AM 34.7°F1.5°C 33.4°F0.8°C 95% 1.0 mph SW1.6 kmh SW 3.0 mph4.8 kmh 29.72 in1006.4 mb 0.01 in0.3 mm 0.00 in0.0 mm 0.48 in12.2 mm
01:55 AM 34.7°F1.5°C 33.4°F0.8°C 95% 1.0 mph W1.6 kmh W 5.0 mph8.0 kmh 29.72 in1006.4 mb 0.01 in0.3 mm 0.00 in0.0 mm 0.48 in12.2 mm
02:00 AM 34.8°F1.6°C 33.5°F0.8°C 95% 1.0 mph SSW1.6 kmh SSW 3.0 mph4.8 kmh 29.72 in1006.4 mb 0.01 in0.3 mm 0.00 in0.0 mm 0.48 in12.2 mm
02:05 AM 34.8°F1.6°C 33.5°F0.8°C 95% 1.0 mph WSW1.6 kmh WSW 3.0 mph4.8 kmh 29.72 in1006.4 mb 0.01 in0.3 mm 0.00 in0.0 mm 0.48 in12.2 mm
02:10 AM 34.8°F1.6°C 33.5°F0.8°C 95% 1.0 mph SW1.6 kmh SW 2.0 mph3.2 kmh 29.72 in1006.4 mb 0.01 in0.3 mm 0.00 in0.0 mm 0.48 in12.2 mm
02:15 AM 34.7°F1.5°C 33.4°F0.8°C 95% Calm Calm 2.0 mph3.2 kmh 29.72 in1006.4 mb 0.01 in0.3 mm 0.00 in0.0 mm 0.48 in12.2 mm
02:20 AM 34.8°F1.6°C 33.5°F0.8°C 95% Calm Calm 5.0 mph8.0 kmh 29.72 in1006.4 mb 0.01 in0.3 mm 0.00 in0.0 mm 0.48 in12.2 mm
02:25 AM 34.8°F1.6°C 33.5°F0.8°C 95% 1.0 mph WSW1.6 kmh WSW 4.0 mph6.4 kmh 29.73 in1006.8 mb 0.01 in0.3 mm 0.00 in0.0 mm 0.48 in12.2 mm
02:30 AM 34.9°F1.6°C 33.6°F0.9°C 95% 1.0 mph WSW1.6 kmh WSW 7.0 mph11.3 kmh 29.72 in1006.4 mb 0.01 in0.3 mm 0.00 in0.0 mm 0.48 in12.2 mm
02:35 AM 34.9°F1.6°C 33.6°F0.9°C 95% 2.0 mph W3.2 kmh W 4.0 mph6.4 kmh 29.73 in1006.8 mb 0.01 in0.3 mm 0.00 in0.0 mm 0.48 in12.2 mm
02:40 AM 35.0°F1.7°C 33.7°F0.9°C 95% 1.0 mph W1.6 kmh W 8.0 mph12.9 kmh 29.73 in1006.8 mb 0.00 in0.0 mm 0.00 in0.0 mm 0.48 in12.2 mm
02:45 AM 35.0°F1.7°C 33.7°F0.9°C 95% 1.0 mph NW1.6 kmh NW 2.0 mph3.2 kmh 29.73 in1006.8 mb 0.00 in0.0 mm 0.00 in0.0 mm 0.48 in12.2 mm
02:50 AM 35.0°F1.7°C 33.7°F0.9°C 95% 1.0 mph W1.6 kmh W 3.0 mph4.8 kmh 29.72 in1006.4 mb 0.00 in0.0 mm 0.00 in0.0 mm 0.48 in12.2 mm
02:55 AM 34.9°F1.6°C 33.6°F0.9°C 95% 1.0 mph WNW1.6 kmh WNW 4.0 mph6.4 kmh 29.73 in1006.8 mb 0.00 in0.0 mm 0.00 in0.0 mm 0.48 in12.2 mm
03:00 AM 35.0°F1.7°C 33.7°F0.9°C 95% 1.0 mph NE1.6 kmh NE 3.0 mph4.8 kmh 29.73 in1006.8 mb 0.00 in0.0 mm 0.00 in0.0 mm 0.48 in12.2 mm
03:05 AM 35.0°F1.7°C 33.7°F0.9°C 95% 1.0 mph WNW1.6 kmh WNW 3.0 mph4.8 kmh 29.73 in1006.8 mb 0.00 in0.0 mm 0.00 in0.0 mm 0.48 in12.2 mm
03:10 AM 35.0°F1.7°C 33.7°F0.9°C 95% 1.0 mph WNW1.6 kmh WNW 4.0 mph6.4 kmh 29.74 in1007.1 mb 0.00 in0.0 mm 0.00 in0.0 mm 0.48 in12.2 mm
03:15 AM 35.2°F1.8°C 33.6°F0.9°C 94% Calm Calm 2.0 mph3.2 kmh 29.74 in1007.1 mb 0.01 in0.3 mm 0.12 in3.0 mm 0.49 in12.4 mm
03:20 AM 35.1°F1.7°C 33.6°F0.9°C 94% Calm Calm 2.0 mph3.2 kmh 29.74 in1007.1 mb 0.01 in0.3 mm 0.00 in0.0 mm 0.49 in12.4 mm
03:25 AM 35.1°F1.7°C 33.6°F0.9°C 94% 1.0 mph SSW1.6 kmh SSW 4.0 mph6.4 kmh 29.75 in1007.5 mb 0.01 in0.3 mm 0.00 in0.0 mm 0.49 in12.4 mm
03:30 AM 35.2°F1.8°C 33.6°F0.9°C 94% 1.0 mph SW1.6 kmh SW 3.0 mph4.8 kmh 29.75 in1007.5 mb 0.01 in0.3 mm 0.00 in0.0 mm 0.49 in12.4 mm
03:35 AM 35.2°F1.8°C 33.6°F0.9°C 94% 1.0 mph W1.6 kmh W 3.0 mph4.8 kmh 29.75 in1007.5 mb 0.01 in0.3 mm 0.00 in0.0 mm 0.49 in12.4 mm
03:40 AM 35.0°F1.7°C 33.5°F0.8°C 94% Calm Calm 2.0 mph3.2 kmh 29.75 in1007.5 mb 0.01 in0.3 mm 0.00 in0.0 mm 0.49 in12.4 mm
03:45 AM 35.0°F1.7°C 33.5°F0.8°C 94% 2.0 mph SW3.2 kmh SW 4.0 mph6.4 kmh 29.75 in1007.5 mb 0.01 in0.3 mm 0.00 in0.0 mm 0.49 in12.4 mm
03:50 AM 35.1°F1.7°C 33.6°F0.9°C 94% 2.0 mph NNW3.2 kmh NNW 6.0 mph9.7 kmh 29.76 in1007.8 mb 0.01 in0.3 mm 0.00 in0.0 mm 0.49 in12.4 mm
03:55 AM 35.2°F1.8°C 33.6°F0.9°C 94% 1.0 mph WNW1.6 kmh WNW 6.0 mph9.7 kmh 29.76 in1007.8 mb 0.01 in0.3 mm 0.00 in0.0 mm 0.49 in12.4 mm
04:00 AM 35.1°F1.7°C 33.6°F0.9°C 94% 1.0 mph WNW1.6 kmh WNW 5.0 mph8.0 kmh 29.76 in1007.8 mb 0.01 in0.3 mm 0.00 in0.0 mm 0.49 in12.4 mm
04:05 AM 35.1°F1.7°C 33.3°F0.7°C 93% 1.0 mph NW1.6 kmh NW 4.0 mph6.4 kmh 29.76 in1007.8 mb 0.01 in0.3 mm 0.00 in0.0 mm 0.49 in12.4 mm
04:10 AM 35.0°F1.7°C 33.2°F0.7°C 93% 2.0 mph WSW3.2 kmh WSW 7.0 mph11.3 kmh 29.77 in1008.1 mb 0.01 in0.3 mm 0.00 in0.0 mm 0.49 in12.4 mm
04:15 AM 34.9°F1.6°C 33.1°F0.6°C 93% 1.0 mph W1.6 kmh W 4.0 mph6.4 kmh 29.77 in1008.1 mb 0.00 in0.0 mm 0.00 in0.0 mm 0.49 in12.4 mm
04:20 AM 34.8°F1.6°C 33.0°F0.6°C 93% 1.0 mph WNW1.6 kmh WNW 3.0 mph4.8 kmh 29.78 in1008.5 mb 0.00 in0.0 mm 0.00 in0.0 mm 0.49 in12.4 mm
04:25 AM 34.7°F1.5°C 32.9°F0.5°C 93% Calm Calm 2.0 mph3.2 kmh 29.78 in1008.5 mb 0.00 in0.0 mm 0.00 in0.0 mm 0.49 in12.4 mm
04:30 AM 34.7°F1.5°C 32.9°F0.5°C 93% 1.0 mph W1.6 kmh W 3.0 mph4.8 kmh 29.78 in1008.5 mb 0.00 in0.0 mm 0.00 in0.0 mm 0.49 in12.4 mm
04:35 AM 34.6°F1.4°C 32.8°F0.4°C 93% 1.0 mph NNW1.6 kmh NNW 4.0 mph6.4 kmh 29.79 in1008.8 mb 0.00 in0.0 mm 0.00 in0.0 mm 0.49 in12.4 mm
04:40 AM 34.6°F1.4°C 32.8°F0.4°C 93% 1.0 mph NW1.6 kmh NW 4.0 mph6.4 kmh 29.79 in1008.8 mb 0.00 in0.0 mm 0.00 in0.0 mm 0.49 in12.4 mm
04:45 AM 34.6°F1.4°C 32.8°F0.4°C 93% 1.0 mph NW1.6 kmh NW 4.0 mph6.4 kmh 29.79 in1008.8 mb 0.00 in0.0 mm 0.00 in0.0 mm 0.49 in12.4 mm
04:50 AM 34.6°F1.4°C 32.8°F0.4°C 93% 1.0 mph NW1.6 kmh NW 5.0 mph8.0 kmh 29.79 in1008.8 mb 0.00 in0.0 mm 0.00 in0.0 mm 0.49 in12.4 mm
04:55 AM 34.7°F1.5°C 32.9°F0.5°C 93% 1.0 mph NW1.6 kmh NW 3.0 mph4.8 kmh 29.79 in1008.8 mb 0.00 in0.0 mm 0.00 in0.0 mm 0.49 in12.4 mm
05:00 AM 34.8°F1.6°C 32.7°F0.4°C 92% 1.0 mph WNW1.6 kmh WNW 3.0 mph4.8 kmh 29.80 in1009.1 mb 0.00 in0.0 mm 0.00 in0.0 mm 0.49 in12.4 mm
05:05 AM 34.8°F1.6°C 32.7°F0.4°C 92% 1.0 mph WNW1.6 kmh WNW 3.0 mph4.8 kmh 29.80 in1009.1 mb 0.00 in0.0 mm 0.00 in0.0 mm 0.02 in0.5 mm
05:10 AM 34.8°F1.6°C 32.7°F0.4°C 92% 1.0 mph NW1.6 kmh NW 3.0 mph4.8 kmh 29.80 in1009.1 mb 0.01 in0.3 mm 0.12 in3.0 mm 0.01 in0.3 mm
05:15 AM 34.7°F1.5°C 32.6°F0.3°C 92% 1.0 mph NW1.6 kmh NW 3.0 mph4.8 kmh 29.80 in1009.1 mb 0.01 in0.3 mm 0.00 in0.0 mm 0.01 in0.3 mm
05:20 AM 34.7°F1.5°C 32.6°F0.3°C 92% 1.0 mph NW1.6 kmh NW 3.0 mph4.8 kmh 29.80 in1009.1 mb 0.01 in0.3 mm 0.00 in0.0 mm 0.01 in0.3 mm
05:25 AM 34.7°F1.5°C 32.6°F0.3°C 92% Calm Calm 1.0 mph1.6 kmh 29.81 in1009.5 mb 0.01 in0.3 mm 0.00 in0.0 mm 0.01 in0.3 mm
05:30 AM 34.6°F1.4°C 32.5°F0.3°C 92% Calm Calm 2.0 mph3.2 kmh 29.81 in1009.5 mb 0.01 in0.3 mm 0.00 in0.0 mm 0.01 in0.3 mm
05:35 AM 34.6°F1.4°C 32.5°F0.3°C 92% Calm Calm 2.0 mph3.2 kmh 29.81 in1009.5 mb 0.01 in0.3 mm 0.00 in0.0 mm 0.01 in0.3 mm
05:40 AM 34.5°F1.4°C 32.4°F0.2°C 92% Calm Calm 2.0 mph3.2 kmh 29.81 in1009.5 mb 0.01 in0.3 mm 0.00 in0.0 mm 0.01 in0.3 mm
05:45 AM 34.4°F1.3°C 32.1°F0.1°C 91% Calm Calm 1.0 mph1.6 kmh 29.81 in1009.5 mb 0.01 in0.3 mm 0.00 in0.0 mm 0.01 in0.3 mm
05:50 AM 34.3°F1.3°C 32.0°F0.0°C 91% Calm Calm 2.0 mph3.2 kmh 29.81 in1009.5 mb 0.01 in0.3 mm 0.00 in0.0 mm 0.01 in0.3 mm
05:55 AM 34.1°F1.2°C 31.5°F-0.3°C 90% Calm Calm 1.0 mph1.6 kmh 29.81 in1009.5 mb 0.01 in0.3 mm 0.00 in0.0 mm 0.01 in0.3 mm
06:00 AM 33.8°F1.0°C 31.2°F-0.4°C 90% Calm Calm 1.0 mph1.6 kmh 29.81 in1009.5 mb 0.01 in0.3 mm 0.00 in0.0 mm 0.01 in0.3 mm
06:05 AM 33.4°F0.8°C 30.8°F-0.7°C 90% Calm Calm 1.0 mph1.6 kmh 29.82 in1009.8 mb 0.01 in0.3 mm 0.00 in0.0 mm 0.01 in0.3 mm
06:10 AM 33.1°F0.6°C 30.5°F-0.8°C 90% Calm Calm 1.0 mph1.6 kmh 29.82 in1009.8 mb 0.00 in0.0 mm 0.00 in0.0 mm 0.01 in0.3 mm
06:15 AM 32.9°F0.5°C 30.3°F-0.9°C 90% Calm Calm -- 29.82 in1009.8 mb 0.00 in0.0 mm 0.00 in0.0 mm 0.01 in0.3 mm
06:20 AM 32.9°F0.5°C 30.6°F-0.8°C 91% 1.0 mph W1.6 kmh W 2.0 mph3.2 kmh 29.82 in1009.8 mb 0.00 in0.0 mm 0.00 in0.0 mm 0.01 in0.3 mm
06:25 AM 32.8°F0.4°C 30.5°F-0.8°C 91% Calm Calm 1.0 mph1.6 kmh 29.83 in1010.2 mb 0.00 in0.0 mm 0.00 in0.0 mm 0.01 in0.3 mm
06:30 AM 32.8°F0.4°C 30.2°F-1.0°C 90% Calm Calm 1.0 mph1.6 kmh 29.83 in1010.2 mb 0.00 in0.0 mm 0.00 in0.0 mm 0.01 in0.3 mm
06:35 AM 32.6°F0.3°C 30.0°F-1.1°C 90% Calm Calm -- 29.83 in1010.2 mb 0.00 in0.0 mm 0.00 in0.0 mm 0.01 in0.3 mm
06:40 AM 32.5°F0.3°C 29.9°F-1.2°C 90% Calm Calm -- 29.84 in1010.5 mb 0.00 in0.0 mm 0.00 in0.0 mm 0.01 in0.3 mm
06:45 AM 32.3°F0.2°C 29.7°F-1.3°C 90% Calm Calm 1.0 mph1.6 kmh 29.84 in1010.5 mb 0.00 in0.0 mm 0.00 in0.0 mm 0.01 in0.3 mm
06:50 AM 32.1°F0.1°C 29.5°F-1.4°C 90% Calm Calm 1.0 mph1.6 kmh 29.84 in1010.5 mb 0.00 in0.0 mm 0.00 in0.0 mm 0.01 in0.3 mm
06:55 AM 31.9°F-0.1°C 29.3°F-1.5°C 90% Calm Calm -- 29.85 in1010.8 mb 0.00 in0.0 mm 0.00 in0.0 mm 0.01 in0.3 mm
07:00 AM 31.7°F-0.2°C 29.1°F-1.6°C 90% Calm Calm 1.0 mph1.6 kmh 29.84 in1010.5 mb 0.00 in0.0 mm 0.00 in0.0 mm 0.01 in0.3 mm
07:05 AM 31.5°F-0.3°C 28.9°F-1.7°C 90% Calm Calm 1.0 mph1.6 kmh 29.85 in1010.8 mb 0.00 in0.0 mm 0.00 in0.0 mm 0.01 in0.3 mm
07:10 AM 31.4°F-0.3°C 28.8°F-1.8°C 90% 1.0 mph W1.6 kmh W 3.0 mph4.8 kmh 29.85 in1010.8 mb 0.00 in0.0 mm 0.00 in0.0 mm 0.01 in0.3 mm
07:15 AM 31.2°F-0.4°C 28.9°F-1.7°C 91% Calm Calm 2.0 mph3.2 kmh 29.85 in1010.8 mb 0.00 in0.0 mm 0.00 in0.0 mm 0.01 in0.3 mm
07:20 AM 31.1°F-0.5°C 28.8°F-1.8°C 91% 1.0 mph SW1.6 kmh SW 2.0 mph3.2 kmh 29.85 in1010.8 mb 0.00 in0.0 mm 0.00 in0.0 mm 0.01 in0.3 mm
07:25 AM 31.0°F-0.6°C 28.7°F-1.8°C 91% Calm Calm 2.0 mph3.2 kmh 29.85 in1010.8 mb 0.00 in0.0 mm 0.00 in0.0 mm 0.01 in0.3 mm
07:30 AM 30.9°F-0.6°C 28.6°F-1.9°C 91% Calm Calm 1.0 mph1.6 kmh 29.85 in1010.8 mb 0.00 in0.0 mm 0.00 in0.0 mm 0.01 in0.3 mm
07:35 AM 30.9°F-0.6°C 28.6°F-1.9°C 91% Calm Calm 3.0 mph4.8 kmh 29.85 in1010.8 mb 0.00 in0.0 mm 0.00 in0.0 mm 0.01 in0.3 mm
07:40 AM 30.9°F-0.6°C 28.6°F-1.9°C 91% Calm Calm -- 29.85 in1010.8 mb 0.00 in0.0 mm 0.00 in0.0 mm 0.01 in0.3 mm
07:45 AM 30.8°F-0.7°C 28.5°F-1.9°C 91% Calm Calm 3.0 mph4.8 kmh 29.85 in1010.8 mb 0.00 in0.0 mm 0.00 in0.0 mm 0.01 in0.3 mm
07:50 AM 30.7°F-0.7°C 28.7°F-1.8°C 92% Calm Calm 2.0 mph3.2 kmh 29.86 in1011.2 mb 0.00 in0.0 mm 0.00 in0.0 mm 0.01 in0.3 mm
07:55 AM 30.7°F-0.7°C 28.7°F-1.8°C 92% Calm Calm 1.0 mph1.6 kmh 29.86 in1011.2 mb 0.00 in0.0 mm 0.00 in0.0 mm 0.01 in0.3 mm
08:00 AM 30.6°F-0.8°C 28.3°F-2.1°C 91% Calm Calm 2.0 mph3.2 kmh 29.86 in1011.2 mb 0.00 in0.0 mm 0.00 in0.0 mm 0.01 in0.3 mm
08:05 AM 30.4°F-0.9°C 28.4°F-2.0°C 92% Calm Calm 3.0 mph4.8 kmh 29.86 in1011.2 mb 0.00 in0.0 mm 0.00 in0.0 mm 0.01 in0.3 mm
08:10 AM 30.4°F-0.9°C 28.4°F-2.0°C 92% 1.0 mph SE1.6 kmh SE 4.0 mph6.4 kmh 29.86 in1011.2 mb 0.00 in0.0 mm 0.00 in0.0 mm 0.01 in0.3 mm
08:15 AM 30.3°F-0.9°C 28.3°F-2.1°C 92% 1.0 mph WSW1.6 kmh WSW 3.0 mph4.8 kmh 29.87 in1011.5 mb 0.00 in0.0 mm 0.00 in0.0 mm 0.01 in0.3 mm
08:20 AM 30.3°F-0.9°C 28.3°F-2.1°C 92% 1.0 mph WSW1.6 kmh WSW 4.0 mph6.4 kmh 29.87 in1011.5 mb 0.00 in0.0 mm 0.00 in0.0 mm 0.01 in0.3 mm
08:25 AM 30.3°F-0.9°C 28.3°F-2.1°C 92% 1.0 mph NW1.6 kmh NW 3.0 mph4.8 kmh 29.87 in1011.5 mb 0.00 in0.0 mm 0.00 in0.0 mm 0.01 in0.3 mm
08:30 AM 30.5°F-0.8°C 28.5°F-1.9°C 92% 1.0 mph W1.6 kmh W 4.0 mph6.4 kmh 29.87 in1011.5 mb 0.00 in0.0 mm 0.00 in0.0 mm 0.01 in0.3 mm
08:35 AM 30.5°F-0.8°C 28.5°F-1.9°C 92% 1.0 mph W1.6 kmh W 7.0 mph11.3 kmh 29.87 in1011.5 mb 0.00 in0.0 mm 0.00 in0.0 mm 0.01 in0.3 mm
08:40 AM 30.6°F-0.8°C 28.6°F-1.9°C 92% 1.0 mph WNW1.6 kmh WNW 7.0 mph11.3 kmh 29.88 in1011.9 mb 0.00 in0.0 mm 0.00 in0.0 mm 0.01 in0.3 mm
08:45 AM 30.6°F-0.8°C 28.6°F-1.9°C 92% 1.0 mph NNW1.6 kmh NNW 2.0 mph3.2 kmh 29.88 in1011.9 mb 0.00 in0.0 mm 0.00 in0.0 mm 0.01 in0.3 mm
08:50 AM 30.8°F-0.7°C 28.8°F-1.8°C 92% 1.0 mph WNW1.6 kmh WNW 2.0 mph3.2 kmh 29.89 in1012.2 mb 0.00 in0.0 mm 0.00 in0.0 mm 0.01 in0.3 mm
08:55 AM 30.9°F-0.6°C 28.6°F-1.9°C 91% 1.0 mph WNW1.6 kmh WNW 2.0 mph3.2 kmh 29.89 in1012.2 mb 0.00 in0.0 mm 0.00 in0.0 mm 0.01 in0.3 mm
09:00 AM 31.0°F-0.6°C 28.7°F-1.8°C 91% Calm Calm 2.0 mph3.2 kmh 29.89 in1012.2 mb 0.00 in0.0 mm 0.00 in0.0 mm 0.01 in0.3 mm
09:05 AM 31.0°F-0.6°C 28.7°F-1.8°C 91% 1.0 mph WNW1.6 kmh WNW 2.0 mph3.2 kmh 29.90 in1012.5 mb 0.00 in0.0 mm 0.00 in0.0 mm 0.01 in0.3 mm
09:10 AM 31.2°F-0.4°C 28.9°F-1.7°C 91% 2.0 mph NNW3.2 kmh NNW 4.0 mph6.4 kmh 29.91 in1012.9 mb 0.00 in0.0 mm 0.00 in0.0 mm 0.01 in0.3 mm
09:15 AM 31.4°F-0.3°C 28.8°F-1.8°C 90% 2.0 mph NNW3.2 kmh NNW 3.0 mph4.8 kmh 29.91 in1012.9 mb 0.00 in0.0 mm 0.00 in0.0 mm 0.01 in0.3 mm
09:20 AM 31.5°F-0.3°C 28.9°F-1.7°C 90% 1.0 mph NNW1.6 kmh NNW 3.0 mph4.8 kmh 29.91 in1012.9 mb 0.00 in0.0 mm 0.00 in0.0 mm 0.01 in0.3 mm
09:25 AM 31.7°F-0.2°C 29.1°F-1.6°C 90% Calm Calm 2.0 mph3.2 kmh 29.92 in1013.2 mb 0.00 in0.0 mm 0.00 in0.0 mm 0.01 in0.3 mm
09:30 AM 31.8°F-0.1°C 29.2°F-1.6°C 90% 1.0 mph NNW1.6 kmh NNW 3.0 mph4.8 kmh 29.92 in1013.2 mb 0.00 in0.0 mm 0.00 in0.0 mm 0.01 in0.3 mm
09:35 AM 32.0°F0.0°C 29.1°F-1.6°C 89% 2.0 mph NW3.2 kmh NW 5.0 mph8.0 kmh 29.92 in1013.2 mb 0.00 in0.0 mm 0.00 in0.0 mm 0.01 in0.3 mm
09:40 AM 32.1°F0.1°C 29.0°F-1.7°C 88% 2.0 mph NNW3.2 kmh NNW 6.0 mph9.7 kmh 29.93 in1013.5 mb 0.00 in0.0 mm 0.00 in0.0 mm 0.01 in0.3 mm
09:45 AM 32.2°F0.1°C 28.8°F-1.8°C 87% 1.0 mph 1.6 kmh 4.0 mph6.4 kmh 29.93 in1013.5 mb 0.00 in0.0 mm 0.00 in0.0 mm 0.01 in0.3 mm
09:50 AM 32.2°F0.1°C 28.5°F-1.9°C 86% 2.0 mph NW3.2 kmh NW 3.0 mph4.8 kmh 29.93 in1013.5 mb 0.00 in0.0 mm 0.00 in0.0 mm 0.01 in0.3 mm
09:55 AM 32.3°F0.2°C 28.3°F-2.1°C 85% 3.0 mph NNW4.8 kmh NNW 6.0 mph9.7 kmh 29.94 in1013.9 mb 0.00 in0.0 mm 0.00 in0.0 mm 0.01 in0.3 mm
10:00 AM 32.3°F0.2°C 28.0°F-2.2°C 84% 2.0 mph NW3.2 kmh NW 5.0 mph8.0 kmh 29.95 in1014.2 mb 0.00 in0.0 mm 0.00 in0.0 mm 0.01 in0.3 mm
10:05 AM 32.3°F0.2°C 27.7°F-2.4°C 83% 3.0 mph NW4.8 kmh NW 5.0 mph8.0 kmh 29.95 in1014.2 mb 0.00 in0.0 mm 0.00 in0.0 mm 0.01 in0.3 mm
10:10 AM 32.2°F0.1°C 27.3°F-2.6°C 82% 2.0 mph NW3.2 kmh NW 6.0 mph9.7 kmh 29.95 in1014.2 mb 0.00 in0.0 mm 0.00 in0.0 mm 0.01 in0.3 mm
10:15 AM 32.1°F0.1°C 27.2°F-2.7°C 82% 2.0 mph 3.2 kmh 5.0 mph8.0 kmh 29.96 in1014.6 mb 0.00 in0.0 mm 0.00 in0.0 mm 0.01 in0.3 mm
10:20 AM 32.0°F0.0°C 27.1°F-2.7°C 82% 1.0 mph 1.6 kmh 3.0 mph4.8 kmh 29.96 in1014.6 mb 0.00 in0.0 mm 0.00 in0.0 mm 0.01 in0.3 mm
10:25 AM 31.9°F-0.1°C 27.0°F-2.8°C 82% 2.0 mph NNW3.2 kmh NNW 4.0 mph6.4 kmh 29.96 in1014.6 mb 0.00 in0.0 mm 0.00 in0.0 mm 0.01 in0.3 mm
10:30 AM 31.8°F-0.1°C 26.9°F-2.8°C 82% 2.0 mph 3.2 kmh 4.0 mph6.4 kmh 29.97 in1014.9 mb 0.00 in0.0 mm 0.00 in0.0 mm 0.01 in0.3 mm
10:35 AM 31.8°F-0.1°C 26.6°F-3.0°C 81% 3.0 mph NNW4.8 kmh NNW 5.0 mph8.0 kmh 29.97 in1014.9 mb 0.00 in0.0 mm 0.00 in0.0 mm 0.01 in0.3 mm
10:40 AM 31.8°F-0.1°C 26.6°F-3.0°C 81% 3.0 mph NNW4.8 kmh NNW 5.0 mph8.0 kmh 29.97 in1014.9 mb 0.00 in0.0 mm 0.00 in0.0 mm 0.01 in0.3 mm
10:45 AM 31.7°F-0.2°C 26.2°F-3.2°C 80% 4.0 mph NNW6.4 kmh NNW 9.0 mph14.5 kmh 29.98 in1015.2 mb 0.00 in0.0 mm 0.00 in0.0 mm 0.01 in0.3 mm
10:50 AM 31.7°F-0.2°C 25.6°F-3.6°C 78% 4.0 mph NNW6.4 kmh NNW 10.0 mph16.1 kmh 29.98 in1015.2 mb 0.00 in0.0 mm 0.00 in0.0 mm 0.01 in0.3 mm
10:55 AM 31.7°F-0.2°C 25.9°F-3.4°C 79% 3.0 mph NNW4.8 kmh NNW 6.0 mph9.7 kmh 29.99 in1015.6 mb 0.00 in0.0 mm 0.00 in0.0 mm 0.01 in0.3 mm
11:00 AM 31.7°F-0.2°C 25.9°F-3.4°C 79% 3.0 mph 4.8 kmh 8.0 mph12.9 kmh 29.99 in1015.6 mb 0.00 in0.0 mm 0.00 in0.0 mm 0.01 in0.3 mm
11:05 AM 31.6°F-0.2°C 25.8°F-3.4°C 79% 3.0 mph NNE4.8 kmh NNE 6.0 mph9.7 kmh 30.00 in1015.9 mb 0.00 in0.0 mm 0.00 in0.0 mm 0.01 in0.3 mm
11:10 AM 31.4°F-0.3°C 25.0°F-3.9°C 77% 4.0 mph NNW6.4 kmh NNW 9.0 mph14.5 kmh 30.01 in1016.3 mb 0.00 in0.0 mm 0.00 in0.0 mm 0.01 in0.3 mm
11:15 AM 31.3°F-0.4°C 24.6°F-4.1°C 76% 3.0 mph NNW4.8 kmh NNW 5.0 mph8.0 kmh 30.01 in1016.3 mb 0.00 in0.0 mm 0.00 in0.0 mm 0.01 in0.3 mm
11:20 AM 31.2°F-0.4°C 24.2°F-4.3°C 75% 5.0 mph NNW8.0 kmh NNW 13.0 mph20.9 kmh 30.01 in1016.3 mb 0.00 in0.0 mm 0.00 in0.0 mm 0.01 in0.3 mm
11:25 AM 30.9°F-0.6°C 23.6°F-4.7°C 74% 4.0 mph NNW6.4 kmh NNW 8.0 mph12.9 kmh 30.02 in1016.6 mb 0.00 in0.0 mm 0.00 in0.0 mm 0.01 in0.3 mm
11:30 AM 30.7°F-0.7°C 23.1°F-4.9°C 73% 5.0 mph NNW8.0 kmh NNW 12.0 mph19.3 kmh 30.02 in1016.6 mb 0.00 in0.0 mm 0.00 in0.0 mm 0.01 in0.3 mm
11:35 AM 30.4°F-0.9°C 22.5°F-5.3°C 72% 5.0 mph NNW8.0 kmh NNW 15.0 mph24.1 kmh 30.02 in1016.6 mb 0.00 in0.0 mm 0.00 in0.0 mm 0.01 in0.3 mm
11:40 AM 30.1°F-1.1°C 22.2°F-5.4°C 72% 5.0 mph NNW8.0 kmh NNW 12.0 mph19.3 kmh 30.03 in1016.9 mb 0.00 in0.0 mm 0.00 in0.0 mm 0.01 in0.3 mm
11:45 AM 29.8°F-1.2°C 21.9°F-5.6°C 72% 6.0 mph NNW9.7 kmh NNW 12.0 mph19.3 kmh 30.04 in1017.3 mb 0.00 in0.0 mm 0.00 in0.0 mm 0.01 in0.3 mm
11:50 AM 29.5°F-1.4°C 21.3°F-5.9°C 71% 7.0 mph NNW11.3 kmh NNW 12.0 mph19.3 kmh 30.05 in1017.6 mb 0.00 in0.0 mm 0.00 in0.0 mm 0.01 in0.3 mm
11:55 AM 29.2°F-1.6°C 20.7°F-6.3°C 70% 6.0 mph NNW9.7 kmh NNW 14.0 mph22.5 kmh 30.05 in1017.6 mb 0.00 in0.0 mm 0.00 in0.0 mm 0.01 in0.3 mm
12:00 PM 28.9°F-1.7°C 21.4°F-5.9°C 73% 4.0 mph 6.4 kmh 10.0 mph16.1 kmh 30.06 in1017.9 mb 0.00 in0.0 mm 0.00 in0.0 mm 0.01 in0.3 mm
12:05 PM 28.5°F-1.9°C 21.3°F-5.9°C 74% 3.0 mph NNW4.8 kmh NNW 7.0 mph11.3 kmh 30.06 in1017.9 mb 0.00 in0.0 mm 0.00 in0.0 mm 0.01 in0.3 mm
12:10 PM 27.9°F-2.3°C 20.7°F-6.3°C 74% 5.0 mph 8.0 kmh 11.0 mph17.7 kmh 30.07 in1018.3 mb 0.00 in0.0 mm 0.00 in0.0 mm 0.01 in0.3 mm
12:15 PM 27.6°F-2.4°C 20.1°F-6.6°C 73% 6.0 mph NNW9.7 kmh NNW 16.0 mph25.7 kmh 30.07 in1018.3 mb 0.00 in0.0 mm 0.00 in0.0 mm 0.01 in0.3 mm
12:20 PM 27.2°F-2.7°C 20.0°F-6.7°C 74% 4.0 mph NNW6.4 kmh NNW 9.0 mph14.5 kmh 30.08 in1018.6 mb 0.00 in0.0 mm 0.00 in0.0 mm 0.01 in0.3 mm
12:25 PM 27.0°F-2.8°C 19.5°F-6.9°C 73% 5.0 mph 8.0 kmh 11.0 mph17.7 kmh 30.08 in1018.6 mb 0.00 in0.0 mm 0.00 in0.0 mm 0.01 in0.3 mm
12:30 PM 26.8°F-2.9°C 19.0°F-7.2°C 72% 6.0 mph NNW9.7 kmh NNW 12.0 mph19.3 kmh 30.09 in1019.0 mb 0.00 in0.0 mm 0.00 in0.0 mm 0.01 in0.3 mm
12:35 PM 26.5°F-3.1°C 18.7°F-7.4°C 72% 6.0 mph NNW9.7 kmh NNW 12.0 mph19.3 kmh 30.10 in1019.3 mb 0.00 in0.0 mm 0.00 in0.0 mm 0.01 in0.3 mm
12:40 PM 26.5°F-3.1°C 19.0°F-7.2°C 73% 4.0 mph 6.4 kmh 8.0 mph12.9 kmh 30.10 in1019.3 mb 0.00 in0.0 mm 0.00 in0.0 mm 0.01 in0.3 mm
12:45 PM 26.1°F-3.3°C 18.3°F-7.6°C 72% 6.0 mph NNW9.7 kmh NNW 13.0 mph20.9 kmh 30.11 in1019.6 mb 0.00 in0.0 mm 0.00 in0.0 mm 0.01 in0.3 mm
12:50 PM 25.7°F-3.5°C 17.6°F-8.0°C 71% 6.0 mph NNW9.7 kmh NNW 12.0 mph19.3 kmh 30.11 in1019.6 mb 0.00 in0.0 mm 0.00 in0.0 mm 0.01 in0.3 mm
12:55 PM 25.1°F-3.8°C 17.0°F-8.3°C 71% 7.0 mph NNW11.3 kmh NNW 16.0 mph25.7 kmh 30.12 in1020.0 mb 0.00 in0.0 mm 0.00 in0.0 mm 0.01 in0.3 mm
01:00 PM 24.5°F-4.2°C 17.1°F-8.3°C 73% 4.0 mph NNW6.4 kmh NNW 12.0 mph19.3 kmh 30.13 in1020.3 mb 0.00 in0.0 mm 0.00 in0.0 mm 0.01 in0.3 mm
01:05 PM 24.3°F-4.3°C 16.6°F-8.6°C 72% 5.0 mph 8.0 kmh 14.0 mph22.5 kmh 30.13 in1020.3 mb 0.00 in0.0 mm 0.00 in0.0 mm 0.01 in0.3 mm
01:10 PM 23.7°F-4.6°C 15.7°F-9.1°C 71% 6.0 mph NNW9.7 kmh NNW 14.0 mph22.5 kmh 30.14 in1020.7 mb 0.00 in0.0 mm 0.00 in0.0 mm 0.01 in0.3 mm
01:15 PM 23.5°F-4.7°C 15.8°F-9.0°C 72% 5.0 mph NNW8.0 kmh NNW 13.0 mph20.9 kmh 30.15 in1021.0 mb 0.00 in0.0 mm 0.00 in0.0 mm 0.01 in0.3 mm
01:20 PM 23.4°F-4.8°C 15.4°F-9.2°C 71% 6.0 mph NNW9.7 kmh NNW 11.0 mph17.7 kmh 30.14 in1020.7 mb 0.00 in0.0 mm 0.00 in0.0 mm 0.01 in0.3 mm
01:25 PM 23.5°F-4.7°C 15.2°F-9.3°C 70% 6.0 mph 9.7 kmh 16.0 mph25.7 kmh 30.15 in1021.0 mb 0.00 in0.0 mm 0.00 in0.0 mm 0.01 in0.3 mm
01:30 PM 23.5°F-4.7°C 14.9°F-9.5°C 69% 6.0 mph 9.7 kmh 12.0 mph19.3 kmh 30.15 in1021.0 mb 0.00 in0.0 mm 0.00 in0.0 mm 0.01 in0.3 mm
01:35 PM 23.7°F-4.6°C 15.0°F-9.4°C 69% 7.0 mph NNW11.3 kmh NNW 12.0 mph19.3 kmh 30.15 in1021.0 mb 0.00 in0.0 mm 0.00 in0.0 mm 0.01 in0.3 mm
01:40 PM 23.7°F-4.6°C 15.4°F-9.2°C 70% 7.0 mph NNW11.3 kmh NNW 16.0 mph25.7 kmh 30.16 in1021.3 mb 0.00 in0.0 mm 0.00 in0.0 mm 0.01 in0.3 mm
01:45 PM 23.6°F-4.7°C 14.6°F-9.7°C 68% 7.0 mph NNW11.3 kmh NNW 17.0 mph27.4 kmh 30.16 in1021.3 mb 0.00 in0.0 mm 0.00 in0.0 mm 0.01 in0.3 mm
01:50 PM 23.3°F-4.8°C 14.0°F-10.0°C 67% 8.0 mph NNW12.9 kmh NNW 19.0 mph30.6 kmh 30.16 in1021.3 mb 0.00 in0.0 mm 0.00 in0.0 mm 0.01 in0.3 mm
01:55 PM 22.9°F-5.1°C 13.6°F-10.2°C 67% 9.0 mph NNW14.5 kmh NNW 19.0 mph30.6 kmh 30.16 in1021.3 mb 0.00 in0.0 mm 0.00 in0.0 mm 0.01 in0.3 mm
02:00 PM 23.2°F-4.9°C 13.9°F-10.1°C 67% 5.0 mph NNW8.0 kmh NNW 11.0 mph17.7 kmh 30.16 in1021.3 mb 0.00 in0.0 mm 0.00 in0.0 mm 0.01 in0.3 mm
02:05 PM 23.5°F-4.7°C 14.2°F-9.9°C 67% 6.0 mph NNW9.7 kmh NNW 14.0 mph22.5 kmh 30.17 in1021.7 mb 0.00 in0.0 mm 0.00 in0.0 mm 0.01 in0.3 mm
02:10 PM 23.2°F-4.9°C 13.9°F-10.1°C 67% 5.0 mph NW8.0 kmh NW 13.0 mph20.9 kmh 30.17 in1021.7 mb 0.00 in0.0 mm 0.00 in0.0 mm 0.01 in0.3 mm
02:15 PM 23.0°F-5.0°C 13.4°F-10.3°C 66% 6.0 mph NW9.7 kmh NW 11.0 mph17.7 kmh 30.17 in1021.7 mb 0.00 in0.0 mm 0.00 in0.0 mm 0.01 in0.3 mm
02:20 PM 22.7°F-5.2°C 13.1°F-10.5°C 66% 4.0 mph NNW6.4 kmh NNW 9.0 mph14.5 kmh 30.17 in1021.7 mb 0.00 in0.0 mm 0.00 in0.0 mm 0.01 in0.3 mm
02:25 PM 22.7°F-5.2°C 13.1°F-10.5°C 66% 7.0 mph NNW11.3 kmh NNW 14.0 mph22.5 kmh 30.18 in1022.0 mb 0.00 in0.0 mm 0.00 in0.0 mm 0.01 in0.3 mm
02:30 PM 22.9°F-5.1°C 12.9°F-10.6°C 65% 6.0 mph NNW9.7 kmh NNW 11.0 mph17.7 kmh 30.18 in1022.0 mb 0.00 in0.0 mm 0.00 in0.0 mm 0.01 in0.3 mm
02:35 PM 23.2°F-4.9°C 13.2°F-10.4°C 65% 6.0 mph NNW9.7 kmh NNW 16.0 mph25.7 kmh 30.18 in1022.0 mb 0.00 in0.0 mm 0.00 in0.0 mm 0.01 in0.3 mm
02:40 PM 22.8°F-5.1°C 11.8°F-11.2°C 62% 9.0 mph NNW14.5 kmh NNW 19.0 mph30.6 kmh 30.19 in1022.4 mb 0.00 in0.0 mm 0.00 in0.0 mm 0.01 in0.3 mm
02:45 PM 22.8°F-5.1°C 11.8°F-11.2°C 62% 8.0 mph NNW12.9 kmh NNW 15.0 mph24.1 kmh 30.19 in1022.4 mb 0.00 in0.0 mm 0.00 in0.0 mm 0.01 in0.3 mm
02:50 PM 23.1°F-4.9°C 12.4°F-10.9°C 63% 7.0 mph NNW11.3 kmh NNW 16.0 mph25.7 kmh 30.20 in1022.7 mb 0.00 in0.0 mm 0.00 in0.0 mm 0.01 in0.3 mm
02:55 PM 22.8°F-5.1°C 12.1°F-11.1°C 63% 6.0 mph NNW9.7 kmh NNW 12.0 mph19.3 kmh 30.20 in1022.7 mb 0.00 in0.0 mm 0.00 in0.0 mm 0.01 in0.3 mm
03:00 PM 22.2°F-5.4°C 11.5°F-11.4°C 63% 7.0 mph NNW11.3 kmh NNW 13.0 mph20.9 kmh 30.20 in1022.7 mb 0.00 in0.0 mm 0.00 in0.0 mm 0.01 in0.3 mm
03:05 PM 22.3°F-5.4°C 11.3°F-11.5°C 62% 8.0 mph NNW12.9 kmh NNW 17.0 mph27.4 kmh 30.20 in1022.7 mb 0.00 in0.0 mm 0.00 in0.0 mm 0.01 in0.3 mm
03:10 PM 22.5°F-5.3°C 12.2°F-11.0°C 64% 7.0 mph NNW11.3 kmh NNW 17.0 mph27.4 kmh 30.21 in1023.0 mb 0.00 in0.0 mm 0.00 in0.0 mm 0.01 in0.3 mm
03:15 PM 22.3°F-5.4°C 11.6°F-11.3°C 63% 8.0 mph NNW12.9 kmh NNW 14.0 mph22.5 kmh 30.21 in1023.0 mb 0.00 in0.0 mm 0.00 in0.0 mm 0.01 in0.3 mm
03:20 PM 22.4°F-5.3°C 12.1°F-11.1°C 64% 8.0 mph NNW12.9 kmh NNW 16.0 mph25.7 kmh 30.22 in1023.4 mb 0.00 in0.0 mm 0.00 in0.0 mm 0.01 in0.3 mm
03:25 PM 22.2°F-5.4°C 11.9°F-11.2°C 64% 7.0 mph NNW11.3 kmh NNW 15.0 mph24.1 kmh 30.22 in1023.4 mb 0.00 in0.0 mm 0.00 in0.0 mm 0.01 in0.3 mm
03:30 PM 22.5°F-5.3°C 11.5°F-11.4°C 62% 5.0 mph NNW8.0 kmh NNW 10.0 mph16.1 kmh 30.22 in1023.4 mb 0.00 in0.0 mm 0.00 in0.0 mm 0.01 in0.3 mm
03:35 PM 22.3°F-5.4°C 11.3°F-11.5°C 62% 7.0 mph NW11.3 kmh NW 15.0 mph24.1 kmh 30.22 in1023.4 mb 0.00 in0.0 mm 0.00 in0.0 mm 0.01 in0.3 mm
03:40 PM 22.4°F-5.3°C 11.7°F-11.3°C 63% 5.0 mph NNW8.0 kmh NNW 11.0 mph17.7 kmh 30.22 in1023.4 mb 0.00 in0.0 mm 0.00 in0.0 mm 0.01 in0.3 mm
03:45 PM 22.7°F-5.2°C 12.4°F-10.9°C 64% 6.0 mph NW9.7 kmh NW 12.0 mph19.3 kmh 30.23 in1023.7 mb 0.00 in0.0 mm 0.00 in0.0 mm 0.01 in0.3 mm
03:50 PM 22.6°F-5.2°C 10.5°F-11.9°C 59% 6.0 mph NW9.7 kmh NW 12.0 mph19.3 kmh 30.23 in1023.7 mb 0.00 in0.0 mm 0.00 in0.0 mm 0.01 in0.3 mm
03:55 PM 22.1°F-5.5°C 10.4°F-12.0°C 60% 8.0 mph NNW12.9 kmh NNW 20.0 mph32.2 kmh 30.22 in1023.4 mb 0.00 in0.0 mm 0.00 in0.0 mm 0.01 in0.3 mm
04:00 PM 22.4°F-5.3°C 10.6°F-11.9°C 60% 7.0 mph NNW11.3 kmh NNW 20.0 mph32.2 kmh 30.23 in1023.7 mb 0.00 in0.0 mm 0.00 in0.0 mm 0.01 in0.3 mm
04:05 PM 22.4°F-5.3°C 9.9°F-12.3°C 58% 6.0 mph 9.7 kmh 10.0 mph16.1 kmh 30.23 in1023.7 mb 0.00 in0.0 mm 0.00 in0.0 mm 0.01 in0.3 mm
04:10 PM 22.4°F-5.3°C 8.7°F-12.9°C 55% 9.0 mph NNW14.5 kmh NNW 17.0 mph27.4 kmh 30.24 in1024.0 mb 0.00 in0.0 mm 0.00 in0.0 mm 0.01 in0.3 mm
04:15 PM 22.7°F-5.2°C 8.6°F-13.0°C 54% 7.0 mph 11.3 kmh 15.0 mph24.1 kmh 30.24 in1024.0 mb 0.00 in0.0 mm 0.00 in0.0 mm 0.01 in0.3 mm
04:20 PM 22.6°F-5.2°C 7.2°F-13.8°C 51% 8.0 mph NNW12.9 kmh NNW 18.0 mph29.0 kmh 30.23 in1023.7 mb 0.00 in0.0 mm 0.00 in0.0 mm 0.01 in0.3 mm
04:25 PM 22.4°F-5.3°C 8.7°F-12.9°C 55% 8.0 mph NNW12.9 kmh NNW 13.0 mph20.9 kmh 30.23 in1023.7 mb 0.00 in0.0 mm 0.00 in0.0 mm 0.01 in0.3 mm
04:30 PM 23.0°F-5.0°C 9.3°F-12.6°C 55% 6.0 mph NNW9.7 kmh NNW 15.0 mph24.1 kmh 30.23 in1023.7 mb 0.00 in0.0 mm 0.00 in0.0 mm 0.01 in0.3 mm
04:35 PM 22.9°F-5.1°C 7.9°F-13.4°C 52% 9.0 mph NNW14.5 kmh NNW 23.0 mph37.0 kmh 30.23 in1023.7 mb 0.00 in0.0 mm 0.00 in0.0 mm 0.01 in0.3 mm
04:40 PM 23.0°F-5.0°C 8.4°F-13.1°C 53% 4.0 mph NNW6.4 kmh NNW 23.0 mph37.0 kmh 30.24 in1024.0 mb 0.00 in0.0 mm 0.00 in0.0 mm 0.01 in0.3 mm
04:45 PM 22.9°F-5.1°C 8.4°F-13.1°C 53% 7.0 mph NNW11.3 kmh NNW 13.0 mph20.9 kmh 30.24 in1024.0 mb 0.00 in0.0 mm 0.00 in0.0 mm 0.01 in0.3 mm
04:50 PM 22.3°F-5.4°C 7.0°F-13.9°C 51% 7.0 mph NNW11.3 kmh NNW 13.0 mph20.9 kmh 30.24 in1024.0 mb 0.00 in0.0 mm 0.00 in0.0 mm 0.01 in0.3 mm
04:55 PM 22.7°F-5.2°C 7.3°F-13.7°C 51% 7.0 mph NNW11.3 kmh NNW 19.0 mph30.6 kmh 30.24 in1024.0 mb 0.00 in0.0 mm 0.00 in0.0 mm 0.01 in0.3 mm
05:00 PM 22.7°F-5.2°C 6.4°F-14.2°C 49% 7.0 mph NNW11.3 kmh NNW 16.0 mph25.7 kmh 30.24 in1024.0 mb 0.00 in0.0 mm 0.00 in0.0 mm 0.01 in0.3 mm
05:05 PM 22.9°F-5.1°C 7.1°F-13.8°C 50% 6.0 mph NNW9.7 kmh NNW 16.0 mph25.7 kmh 30.25 in1024.4 mb 0.00 in0.0 mm 0.00 in0.0 mm 0.01 in0.3 mm
05:10 PM 22.5°F-5.3°C 5.8°F-14.6°C 48% 7.0 mph 11.3 kmh 13.0 mph20.9 kmh 30.24 in1024.0 mb 0.00 in0.0 mm 0.00 in0.0 mm 0.01 in0.3 mm
05:15 PM 22.7°F-5.2°C 6.4°F-14.2°C 49% 7.0 mph NW11.3 kmh NW 13.0 mph20.9 kmh 30.24 in1024.0 mb 0.00 in0.0 mm 0.00 in0.0 mm 0.01 in0.3 mm
05:20 PM 22.8°F-5.1°C 7.4°F-13.7°C 51% 5.0 mph NW8.0 kmh NW 11.0 mph17.7 kmh 30.24 in1024.0 mb 0.00 in0.0 mm 0.00 in0.0 mm 0.01 in0.3 mm
05:25 PM 22.6°F-5.2°C 7.2°F-13.8°C 51% 6.0 mph 9.7 kmh 10.0 mph16.1 kmh 30.25 in1024.4 mb 0.00 in0.0 mm 0.00 in0.0 mm 0.01 in0.3 mm
05:30 PM 23.0°F-5.0°C 7.6°F-13.6°C 51% 6.0 mph 9.7 kmh 17.0 mph27.4 kmh 30.25 in1024.4 mb 0.00 in0.0 mm 0.00 in0.0 mm 0.01 in0.3 mm
05:35 PM 22.7°F-5.2°C 4.6°F-15.2°C 45% 8.0 mph NNW12.9 kmh NNW 14.0 mph22.5 kmh 30.25 in1024.4 mb 0.00 in0.0 mm 0.00 in0.0 mm 0.01 in0.3 mm
05:40 PM 22.6°F-5.2°C 4.5°F-15.3°C 45% 6.0 mph NW9.7 kmh NW 13.0 mph20.9 kmh 30.25 in1024.4 mb 0.00 in0.0 mm 0.00 in0.0 mm 0.01 in0.3 mm
05:45 PM 23.0°F-5.0°C 4.9°F-15.1°C 45% 5.0 mph NW8.0 kmh NW 10.0 mph16.1 kmh 30.25 in1024.4 mb 0.00 in0.0 mm 0.00 in0.0 mm 0.01 in0.3 mm
05:50 PM 22.9°F-5.1°C 5.7°F-14.6°C 47% 7.0 mph NNW11.3 kmh NNW 12.0 mph19.3 kmh 30.25 in1024.4 mb 0.00 in0.0 mm 0.00 in0.0 mm 0.01 in0.3 mm
05:55 PM 22.4°F-5.3°C 4.3°F-15.4°C 45% 9.0 mph NNW14.5 kmh NNW 15.0 mph24.1 kmh 30.25 in1024.4 mb 0.00 in0.0 mm 0.00 in0.0 mm 0.01 in0.3 mm
06:00 PM 22.7°F-5.2°C 4.1°F-15.5°C 44% 7.0 mph 11.3 kmh 17.0 mph27.4 kmh 30.26 in1024.7 mb 0.00 in0.0 mm 0.00 in0.0 mm 0.01 in0.3 mm
06:05 PM 22.6°F-5.2°C 4.5°F-15.3°C 45% 8.0 mph 12.9 kmh 14.0 mph22.5 kmh 30.25 in1024.4 mb 0.00 in0.0 mm 0.00 in0.0 mm 0.01 in0.3 mm
06:10 PM 22.4°F-5.3°C 2.8°F-16.2°C 42% 8.0 mph NNW12.9 kmh NNW 14.0 mph22.5 kmh 30.25 in1024.4 mb 0.00 in0.0 mm 0.00 in0.0 mm 0.01 in0.3 mm
06:15 PM 22.6°F-5.2°C 3.0°F-16.1°C 42% 7.0 mph NNW11.3 kmh NNW 19.0 mph30.6 kmh 30.25 in1024.4 mb 0.00 in0.0 mm 0.00 in0.0 mm 0.01 in0.3 mm
06:20 PM 22.6°F-5.2°C 3.5°F-15.8°C 43% 6.0 mph NNW9.7 kmh NNW 12.0 mph19.3 kmh 30.25 in1024.4 mb 0.00 in0.0 mm 0.00 in0.0 mm 0.01 in0.3 mm
06:25 PM 22.7°F-5.2°C 3.6°F-15.8°C 43% 6.0 mph 9.7 kmh 16.0 mph25.7 kmh 30.25 in1024.4 mb 0.00 in0.0 mm 0.00 in0.0 mm 0.01 in0.3 mm
06:30 PM 22.8°F-5.1°C 3.7°F-15.7°C 43% 7.0 mph NNW11.3 kmh NNW 16.0 mph25.7 kmh 30.25 in1024.4 mb 0.00 in0.0 mm 0.00 in0.0 mm 0.01 in0.3 mm
06:35 PM 22.5°F-5.3°C 3.9°F-15.6°C 44% 7.0 mph NNW11.3 kmh NNW 12.0 mph19.3 kmh 30.25 in1024.4 mb 0.00 in0.0 mm 0.00 in0.0 mm 0.01 in0.3 mm
06:40 PM 23.1°F-4.9°C 4.5°F-15.3°C 44% 5.0 mph NW8.0 kmh NW 10.0 mph16.1 kmh 30.25 in1024.4 mb 0.00 in0.0 mm 0.00 in0.0 mm 0.01 in0.3 mm
06:45 PM 22.9°F-5.1°C 4.8°F-15.1°C 45% 6.0 mph NW9.7 kmh NW 11.0 mph17.7 kmh 30.25 in1024.4 mb 0.00 in0.0 mm 0.00 in0.0 mm 0.01 in0.3 mm
06:50 PM 22.6°F-5.2°C 4.5°F-15.3°C 45% 4.0 mph NW6.4 kmh NW 10.0 mph16.1 kmh 30.25 in1024.4 mb 0.00 in0.0 mm 0.00 in0.0 mm 0.01 in0.3 mm
06:55 PM 22.6°F-5.2°C 3.0°F-16.1°C 42% 6.0 mph 9.7 kmh 15.0 mph24.1 kmh 30.26 in1024.7 mb 0.00 in0.0 mm 0.00 in0.0 mm 0.01 in0.3 mm
07:00 PM 22.4°F-5.3°C 3.3°F-15.9°C 43% 8.0 mph NNW12.9 kmh NNW 12.0 mph19.3 kmh 30.26 in1024.7 mb 0.00 in0.0 mm 0.00 in0.0 mm 0.01 in0.3 mm
07:05 PM 22.6°F-5.2°C 4.0°F-15.6°C 44% 6.0 mph NNW9.7 kmh NNW 15.0 mph24.1 kmh 30.26 in1024.7 mb 0.00 in0.0 mm 0.00 in0.0 mm 0.01 in0.3 mm
07:10 PM 22.4°F-5.3°C 1.2°F-17.1°C 39% 6.0 mph NNW9.7 kmh NNW 11.0 mph17.7 kmh 30.27 in1025.1 mb 0.00 in0.0 mm 0.00 in0.0 mm 0.01 in0.3 mm
07:15 PM 22.2°F-5.4°C 2.1°F-16.6°C 41% 7.0 mph NW11.3 kmh NW 13.0 mph20.9 kmh 30.27 in1025.1 mb 0.00 in0.0 mm 0.00 in0.0 mm 0.01 in0.3 mm
07:20 PM 22.3°F-5.4°C 3.7°F-15.7°C 44% 7.0 mph NW11.3 kmh NW 15.0 mph24.1 kmh 30.27 in1025.1 mb 0.00 in0.0 mm 0.00 in0.0 mm 0.01 in0.3 mm
07:25 PM 22.2°F-5.4°C 2.6°F-16.3°C 42% 5.0 mph 8.0 kmh 11.0 mph17.7 kmh 30.27 in1025.1 mb 0.00 in0.0 mm 0.00 in0.0 mm 0.01 in0.3 mm
07:30 PM 22.3°F-5.4°C 1.1°F-17.2°C 39% 6.0 mph 9.7 kmh 15.0 mph24.1 kmh 30.27 in1025.1 mb 0.00 in0.0 mm 0.00 in0.0 mm 0.01 in0.3 mm
07:35 PM 21.9°F-5.6°C 0.8°F-17.3°C 39% 8.0 mph 12.9 kmh 14.0 mph22.5 kmh 30.27 in1025.1 mb 0.00 in0.0 mm 0.00 in0.0 mm 0.01 in0.3 mm
07:40 PM 21.9°F-5.6°C 0.8°F-17.3°C 39% 5.0 mph 8.0 kmh 13.0 mph20.9 kmh 30.27 in1025.1 mb 0.00 in0.0 mm 0.00 in0.0 mm 0.01 in0.3 mm
07:45 PM 22.0°F-5.6°C -0.2°F-17.9°C 37% 6.0 mph NNW9.7 kmh NNW 12.0 mph19.3 kmh 30.28 in1025.4 mb 0.00 in0.0 mm 0.00 in0.0 mm 0.01 in0.3 mm
07:50 PM 21.8°F-5.7°C 1.2°F-17.1°C 40% 6.0 mph NNW9.7 kmh NNW 17.0 mph27.4 kmh 30.28 in1025.4 mb 0.00 in0.0 mm 0.00 in0.0 mm 0.01 in0.3 mm
07:55 PM 21.6°F-5.8°C -0.6°F-18.1°C 37% 8.0 mph NNW12.9 kmh NNW 13.0 mph20.9 kmh 30.29 in1025.7 mb 0.00 in0.0 mm 0.00 in0.0 mm 0.01 in0.3 mm
08:00 PM 21.4°F-5.9°C 0.9°F-17.3°C 40% 7.0 mph NNW11.3 kmh NNW 13.0 mph20.9 kmh 30.29 in1025.7 mb 0.00 in0.0 mm 0.00 in0.0 mm 0.01 in0.3 mm
08:05 PM 21.4°F-5.9°C -0.2°F-17.9°C 38% 6.0 mph 9.7 kmh 15.0 mph24.1 kmh 30.30 in1026.1 mb 0.00 in0.0 mm 0.00 in0.0 mm 0.01 in0.3 mm
08:10 PM 21.2°F-6.0°C -1.0°F-18.3°C 37% 7.0 mph 11.3 kmh 15.0 mph24.1 kmh 30.30 in1026.1 mb 0.00 in0.0 mm 0.00 in0.0 mm 0.01 in0.3 mm
08:15 PM 21.3°F-5.9°C -0.3°F-17.9°C 38% 5.0 mph 8.0 kmh 11.0 mph17.7 kmh 30.30 in1026.1 mb 0.00 in0.0 mm 0.00 in0.0 mm 0.01 in0.3 mm
08:20 PM 21.4°F-5.9°C -0.2°F-17.9°C 38% 6.0 mph 9.7 kmh 14.0 mph22.5 kmh 30.30 in1026.1 mb 0.00 in0.0 mm 0.00 in0.0 mm 0.01 in0.3 mm
08:25 PM 21.1°F-6.1°C -1.1°F-18.4°C 37% 7.0 mph NNW11.3 kmh NNW 13.0 mph20.9 kmh 30.30 in1026.1 mb 0.00 in0.0 mm 0.00 in0.0 mm 0.01 in0.3 mm
08:30 PM 21.1°F-6.1°C -1.1°F-18.4°C 37% 6.0 mph NW9.7 kmh NW 13.0 mph20.9 kmh 30.30 in1026.1 mb 0.00 in0.0 mm 0.00 in0.0 mm 0.01 in0.3 mm
08:35 PM 21.0°F-6.1°C 0.0°F-17.8°C 39% 6.0 mph NW9.7 kmh NW 13.0 mph20.9 kmh 30.31 in1026.4 mb 0.00 in0.0 mm 0.00 in0.0 mm 0.01 in0.3 mm
08:40 PM 20.9°F-6.2°C -1.2°F-18.4°C 37% 7.0 mph 11.3 kmh 12.0 mph19.3 kmh 30.31 in1026.4 mb 0.00 in0.0 mm 0.00 in0.0 mm 0.01 in0.3 mm
08:45 PM 21.1°F-6.1°C 0.1°F-17.7°C 39% 6.0 mph 9.7 kmh 11.0 mph17.7 kmh 30.31 in1026.4 mb 0.00 in0.0 mm 0.00 in0.0 mm 0.01 in0.3 mm
08:50 PM 20.9°F-6.2°C -1.2°F-18.4°C 37% 7.0 mph 11.3 kmh 14.0 mph22.5 kmh 30.32 in1026.8 mb 0.00 in0.0 mm 0.00 in0.0 mm 0.01 in0.3 mm
08:55 PM 20.8°F-6.2°C -1.3°F-18.5°C 37% 7.0 mph 11.3 kmh 15.0 mph24.1 kmh 30.32 in1026.8 mb 0.00 in0.0 mm 0.00 in0.0 mm 0.01 in0.3 mm
09:00 PM 20.7°F-6.3°C -0.3°F-17.9°C 39% 4.0 mph 6.4 kmh 9.0 mph14.5 kmh 30.33 in1027.1 mb 0.00 in0.0 mm 0.00 in0.0 mm 0.01 in0.3 mm
09:05 PM 20.7°F-6.3°C -0.8°F-18.2°C 38% 5.0 mph NNW8.0 kmh NNW 12.0 mph19.3 kmh 30.33 in1027.1 mb 0.00 in0.0 mm 0.00 in0.0 mm 0.01 in0.3 mm
09:10 PM 20.4°F-6.4°C -1.7°F-18.7°C 37% 7.0 mph NNW11.3 kmh NNW 17.0 mph27.4 kmh 30.33 in1027.1 mb 0.00 in0.0 mm 0.00 in0.0 mm 0.01 in0.3 mm
09:15 PM 20.2°F-6.6°C -1.9°F-18.8°C 37% 6.0 mph NNW9.7 kmh NNW 13.0 mph20.9 kmh 30.33 in1027.1 mb 0.00 in0.0 mm 0.00 in0.0 mm 0.01 in0.3 mm
09:20 PM 20.2°F-6.6°C -0.7°F-18.2°C 39% 4.0 mph 6.4 kmh 9.0 mph14.5 kmh 30.34 in1027.4 mb 0.00 in0.0 mm 0.00 in0.0 mm 0.01 in0.3 mm
09:25 PM 20.0°F-6.7°C -2.0°F-18.9°C 37% 5.0 mph NNW8.0 kmh NNW 11.0 mph17.7 kmh 30.35 in1027.8 mb 0.00 in0.0 mm 0.00 in0.0 mm 0.01 in0.3 mm
09:30 PM 19.8°F-6.8°C -1.7°F-18.7°C 38% 7.0 mph NNW11.3 kmh NNW 17.0 mph27.4 kmh 30.35 in1027.8 mb 0.00 in0.0 mm 0.00 in0.0 mm 0.01 in0.3 mm
09:35 PM 19.5°F-6.9°C -1.4°F-18.6°C 39% 5.0 mph NNW8.0 kmh NNW 12.0 mph19.3 kmh 30.35 in1027.8 mb 0.00 in0.0 mm 0.00 in0.0 mm 0.01 in0.3 mm
09:40 PM 19.3°F-7.1°C -1.6°F-18.7°C 39% 5.0 mph NNW8.0 kmh NNW 10.0 mph16.1 kmh 30.36 in1028.1 mb 0.00 in0.0 mm 0.00 in0.0 mm 0.01 in0.3 mm
09:45 PM 19.1°F-7.2°C -1.7°F-18.7°C 39% 5.0 mph NNW8.0 kmh NNW 12.0 mph19.3 kmh 30.36 in1028.1 mb 0.00 in0.0 mm 0.00 in0.0 mm 0.01 in0.3 mm
09:50 PM 18.9°F-7.3°C -2.5°F-19.2°C 38% 6.0 mph NW9.7 kmh NW 12.0 mph19.3 kmh 30.36 in1028.1 mb 0.00 in0.0 mm 0.00 in0.0 mm 0.01 in0.3 mm
09:55 PM 18.8°F-7.3°C -2.6°F-19.2°C 38% 6.0 mph 9.7 kmh 11.0 mph17.7 kmh 30.37 in1028.4 mb 0.00 in0.0 mm 0.00 in0.0 mm 0.01 in0.3 mm
10:00 PM 18.7°F-7.4°C -1.0°F-18.3°C 41% 4.0 mph NNW6.4 kmh NNW 11.0 mph17.7 kmh 30.38 in1028.8 mb 0.00 in0.0 mm 0.00 in0.0 mm 0.01 in0.3 mm
10:05 PM 18.6°F-7.4°C -1.7°F-18.7°C 40% 6.0 mph NNW9.7 kmh NNW 11.0 mph17.7 kmh 30.38 in1028.8 mb 0.00 in0.0 mm 0.00 in0.0 mm 0.01 in0.3 mm
10:10 PM 18.5°F-7.5°C -1.8°F-18.8°C 40% 6.0 mph NNW9.7 kmh NNW 13.0 mph20.9 kmh 30.38 in1028.8 mb 0.00 in0.0 mm 0.00 in0.0 mm 0.01 in0.3 mm
10:15 PM 18.3°F-7.6°C -2.5°F-19.2°C 39% 5.0 mph NNW8.0 kmh NNW 11.0 mph17.7 kmh 30.39 in1029.1 mb 0.00 in0.0 mm 0.00 in0.0 mm 0.01 in0.3 mm
10:20 PM 18.1°F-7.7°C -2.1°F-18.9°C 40% 5.0 mph NNW8.0 kmh NNW 9.0 mph14.5 kmh 30.39 in1029.1 mb 0.00 in0.0 mm 0.00 in0.0 mm 0.01 in0.3 mm
10:25 PM 18.0°F-7.8°C -2.7°F-19.3°C 39% 6.0 mph NNW9.7 kmh NNW 14.0 mph22.5 kmh 30.39 in1029.1 mb 0.00 in0.0 mm 0.00 in0.0 mm 0.01 in0.3 mm
10:30 PM 17.8°F-7.9°C -2.9°F-19.4°C 39% 5.0 mph NNW8.0 kmh NNW 12.0 mph19.3 kmh 30.39 in1029.1 mb 0.00 in0.0 mm 0.00 in0.0 mm 0.01 in0.3 mm
10:35 PM 17.7°F-7.9°C -3.0°F-19.4°C 39% 6.0 mph 9.7 kmh 11.0 mph17.7 kmh 30.40 in1029.5 mb 0.00 in0.0 mm 0.00 in0.0 mm 0.01 in0.3 mm
10:40 PM 17.4°F-8.1°C -2.7°F-19.3°C 40% 4.0 mph NNW6.4 kmh NNW 9.0 mph14.5 kmh 30.40 in1029.5 mb 0.00 in0.0 mm 0.00 in0.0 mm 0.01 in0.3 mm
10:45 PM 17.3°F-8.2°C -3.4°F-19.7°C 39% 5.0 mph NNW8.0 kmh NNW 11.0 mph17.7 kmh 30.41 in1029.8 mb 0.00 in0.0 mm 0.00 in0.0 mm 0.01 in0.3 mm
10:50 PM 17.2°F-8.2°C -2.9°F-19.4°C 40% 4.0 mph 6.4 kmh 9.0 mph14.5 kmh 30.41 in1029.8 mb 0.00 in0.0 mm 0.00 in0.0 mm 0.01 in0.3 mm
10:55 PM 17.1°F-8.3°C -2.0°F-18.9°C 42% 4.0 mph NNW6.4 kmh NNW 14.0 mph22.5 kmh 30.42 in1030.1 mb 0.00 in0.0 mm 0.00 in0.0 mm 0.01 in0.3 mm
11:00 PM 17.0°F-8.3°C -2.6°F-19.2°C 41% 6.0 mph NNW9.7 kmh NNW 12.0 mph19.3 kmh 30.42 in1030.1 mb 0.00 in0.0 mm 0.00 in0.0 mm 0.01 in0.3 mm
11:05 PM 17.0°F-8.3°C -2.1°F-18.9°C 42% 4.0 mph 6.4 kmh 8.0 mph12.9 kmh 30.42 in1030.1 mb 0.00 in0.0 mm 0.00 in0.0 mm 0.01 in0.3 mm
11:10 PM 16.9°F-8.4°C -2.7°F-19.3°C 41% 4.0 mph NNW6.4 kmh NNW 8.0 mph12.9 kmh 30.42 in1030.1 mb 0.00 in0.0 mm 0.00 in0.0 mm 0.01 in0.3 mm
11:15 PM 16.9°F-8.4°C -2.7°F-19.3°C 41% 6.0 mph NNW9.7 kmh NNW 12.0 mph19.3 kmh 30.43 in1030.5 mb 0.00 in0.0 mm 0.00 in0.0 mm 0.01 in0.3 mm
11:20 PM 16.7°F-8.5°C -2.9°F-19.4°C 41% 4.0 mph NNW6.4 kmh NNW 9.0 mph14.5 kmh 30.43 in1030.5 mb 0.00 in0.0 mm 0.00 in0.0 mm 0.01 in0.3 mm
11:25 PM 16.6°F-8.6°C -3.0°F-19.4°C 41% 5.0 mph 8.0 kmh 8.0 mph12.9 kmh 30.43 in1030.5 mb 0.00 in0.0 mm 0.00 in0.0 mm 0.01 in0.3 mm
11:30 PM 16.6°F-8.6°C -3.5°F-19.7°C 40% 7.0 mph NNW11.3 kmh NNW 13.0 mph20.9 kmh 30.44 in1030.8 mb 0.00 in0.0 mm 0.00 in0.0 mm 0.01 in0.3 mm
11:35 PM 16.4°F-8.7°C -2.6°F-19.2°C 42% 8.0 mph 12.9 kmh 14.0 mph22.5 kmh 30.44 in1030.8 mb 0.00 in0.0 mm 0.00 in0.0 mm 0.01 in0.3 mm
11:40 PM 16.3°F-8.7°C -3.2°F-19.6°C 41% 6.0 mph 9.7 kmh 12.0 mph19.3 kmh 30.45 in1031.2 mb 0.00 in0.0 mm 0.00 in0.0 mm 0.01 in0.3 mm
11:45 PM 16.1°F-8.8°C -2.9°F-19.4°C 42% 5.0 mph 8.0 kmh 9.0 mph14.5 kmh 30.45 in1031.2 mb 0.00 in0.0 mm 0.00 in0.0 mm 0.01 in0.3 mm
11:50 PM 16.0°F-8.9°C -3.5°F-19.7°C 41% 5.0 mph NNW8.0 kmh NNW 11.0 mph17.7 kmh 30.46 in1031.5 mb 0.00 in0.0 mm 0.00 in0.0 mm 0.01 in0.3 mm
11:55 PM 15.9°F-8.9°C -3.1°F-19.5°C 42% 5.0 mph 8.0 kmh 11.0 mph17.7 kmh 30.47 in1031.8 mb 0.00 in0.0 mm 0.00 in0.0 mm 0.01 in0.3 mm